sensor_id;sensor_type;location;lat;lon;timestamp;temperature;humidity
16064;DHT22;8136;53.172;8.256;2023-08-20T00:00:17;17.90;99.90
16064;DHT22;8136;53.172;8.256;2023-08-20T00:02:49;17.90;99.90
16064;DHT22;8136;53.172;8.256;2023-08-20T00:05:19;17.80;99.90
16064;DHT22;8136;53.172;8.256;2023-08-20T00:07:46;17.80;99.90
16064;DHT22;8136;53.172;8.256;2023-08-20T00:10:13;17.80;99.90
16064;DHT22;8136;53.172;8.256;2023-08-20T00:12:40;17.70;99.90
16064;DHT22;8136;53.172;8.256;2023-08-20T00:15:08;17.70;99.90
16064;DHT22;8136;53.172;8.256;2023-08-20T00:17:37;17.70;99.90
16064;DHT22;8136;53.172;8.256;2023-08-20T00:20:07;17.60;99.90
16064;DHT22;8136;53.172;8.256;2023-08-20T00:22:39;17.60;99.90
16064;DHT22;8136;53.172;8.256;2023-08-20T00:25:10;17.60;99.90
16064;DHT22;8136;53.172;8.256;2023-08-20T00:27:37;17.60;99.90
16064;DHT22;8136;53.172;8.256;2023-08-20T00:30:05;17.60;99.90
16064;DHT22;8136;53.172;8.256;2023-08-20T00:32:32;17.50;99.90
16064;DHT22;8136;53.172;8.256;2023-08-20T00:35:01;17.60;99.90
16064;DHT22;8136;53.172;8.256;2023-08-20T00:37:29;17.60;99.90
16064;DHT22;8136;53.172;8.256;2023-08-20T00:39:57;17.60;99.90
16064;DHT22;8136;53.172;8.256;2023-08-20T00:42:25;17.60;99.90
16064;DHT22;8136;53.172;8.256;2023-08-20T00:44:53;17.70;99.90
16064;DHT22;8136;53.172;8.256;2023-08-20T00:47:20;17.70;99.90
16064;DHT22;8136;53.172;8.256;2023-08-20T00:49:48;17.70;99.90
16064;DHT22;8136;53.172;8.256;2023-08-20T00:52:19;17.60;99.90
16064;DHT22;8136;53.172;8.256;2023-08-20T00:54:48;17.50;99.90
16064;DHT22;8136;53.172;8.256;2023-08-20T00:57:18;17.40;99.90
16064;DHT22;8136;53.172;8.256;2023-08-20T00:59:47;17.40;99.90
16064;DHT22;8136;53.172;8.256;2023-08-20T01:02:16;17.40;99.90
16064;DHT22;8136;53.172;8.256;2023-08-20T01:04:44;17.40;99.90
16064;DHT22;8136;53.172;8.256;2023-08-20T01:07:17;17.30;99.90
16064;DHT22;8136;53.172;8.256;2023-08-20T01:10:06;17.30;99.90
16064;DHT22;8136;53.172;8.256;2023-08-20T01:12:35;17.20;99.90
16064;DHT22;8136;53.172;8.256;2023-08-20T01:15:03;17.20;99.90
16064;DHT22;8136;53.172;8.256;2023-08-20T01:17:30;17.20;99.90
16064;DHT22;8136;53.172;8.256;2023-08-20T01:19:57;17.20;99.90
16064;DHT22;8136;53.172;8.256;2023-08-20T01:22:59;17.10;99.90
16064;DHT22;8136;53.172;8.256;2023-08-20T01:28:35;17.10;99.90
16064;DHT22;8136;53.172;8.256;2023-08-20T01:31:05;17.10;99.90
16064;DHT22;8136;53.172;8.256;2023-08-20T01:33:33;17.00;99.90
16064;DHT22;8136;53.172;8.256;2023-08-20T01:36:00;16.90;99.90
16064;DHT22;8136;53.172;8.256;2023-08-20T01:38:27;16.80;99.90
16064;DHT22;8136;53.172;8.256;2023-08-20T01:40:54;16.80;99.90
16064;DHT22;8136;53.172;8.256;2023-08-20T01:43:22;16.70;99.90
16064;DHT22;8136;53.172;8.256;2023-08-20T01:45:51;16.70;99.90
16064;DHT22;8136;53.172;8.256;2023-08-20T01:48:17;16.70;99.90
16064;DHT22;8136;53.172;8.256;2023-08-20T01:50:45;16.60;99.90
16064;DHT22;8136;53.172;8.256;2023-08-20T01:53:17;16.60;99.90
16064;DHT22;8136;53.172;8.256;2023-08-20T01:55:44;16.60;99.90
16064;DHT22;8136;53.172;8.256;2023-08-20T01:58:11;16.50;99.90
16064;DHT22;8136;53.172;8.256;2023-08-20T02:00:42;16.60;99.90
16064;DHT22;8136;53.172;8.256;2023-08-20T02:03:10;16.60;99.90
16064;DHT22;8136;53.172;8.256;2023-08-20T02:05:37;16.50;99.90
16064;DHT22;8136;53.172;8.256;2023-08-20T02:08:05;16.50;99.90
16064;DHT22;8136;53.172;8.256;2023-08-20T02:10:32;16.60;99.90
16064;DHT22;8136;53.172;8.256;2023-08-20T02:13:01;16.60;99.90
16064;DHT22;8136;53.172;8.256;2023-08-20T02:15:29;16.60;99.90
16064;DHT22;8136;53.172;8.256;2023-08-20T02:17:57;16.60;99.90
16064;DHT22;8136;53.172;8.256;2023-08-20T02:20:27;16.60;99.90
16064;DHT22;8136;53.172;8.256;2023-08-20T02:22:55;16.50;99.90
16064;DHT22;8136;53.172;8.256;2023-08-20T02:25:23;16.50;99.90
16064;DHT22;8136;53.172;8.256;2023-08-20T02:27:49;16.60;99.90
16064;DHT22;8136;53.172;8.256;2023-08-20T02:30:17;16.50;99.90
16064;DHT22;8136;53.172;8.256;2023-08-20T02:32:44;16.40;99.90
16064;DHT22;8136;53.172;8.256;2023-08-20T02:35:11;16.40;99.90
16064;DHT22;8136;53.172;8.256;2023-08-20T02:37:43;16.40;99.90
16064;DHT22;8136;53.172;8.256;2023-08-20T02:40:13;16.30;99.90
16064;DHT22;8136;53.172;8.256;2023-08-20T02:42:42;16.30;99.90
16064;DHT22;8136;53.172;8.256;2023-08-20T02:45:10;16.20;99.90
16064;DHT22;8136;53.172;8.256;2023-08-20T02:47:37;16.20;99.90
16064;DHT22;8136;53.172;8.256;2023-08-20T02:50:05;16.20;99.90
16064;DHT22;8136;53.172;8.256;2023-08-20T02:52:32;16.20;99.90
16064;DHT22;8136;53.172;8.256;2023-08-20T02:55:01;16.20;99.90
16064;DHT22;8136;53.172;8.256;2023-08-20T02:57:30;16.20;99.90
16064;DHT22;8136;53.172;8.256;2023-08-20T02:59:57;16.20;99.90
16064;DHT22;8136;53.172;8.256;2023-08-20T03:02:25;16.10;99.90
16064;DHT22;8136;53.172;8.256;2023-08-20T03:04:52;16.20;99.90
16064;DHT22;8136;53.172;8.256;2023-08-20T03:07:23;16.20;99.90
16064;DHT22;8136;53.172;8.256;2023-08-20T03:09:50;16.20;99.90
16064;DHT22;8136;53.172;8.256;2023-08-20T03:12:19;16.20;99.90
16064;DHT22;8136;53.172;8.256;2023-08-20T03:14:48;16.20;99.90
16064;DHT22;8136;53.172;8.256;2023-08-20T03:17:15;16.20;99.90
16064;DHT22;8136;53.172;8.256;2023-08-20T03:19:54;16.10;99.90
16064;DHT22;8136;53.172;8.256;2023-08-20T03:22:23;16.00;99.90
16064;DHT22;8136;53.172;8.256;2023-08-20T03:24:50;16.00;99.90
16064;DHT22;8136;53.172;8.256;2023-08-20T03:27:20;16.00;99.90
16064;DHT22;8136;53.172;8.256;2023-08-20T03:29:47;16.00;99.90
16064;DHT22;8136;53.172;8.256;2023-08-20T03:32:14;16.00;99.90
16064;DHT22;8136;53.172;8.256;2023-08-20T03:34:43;16.00;99.90
16064;DHT22;8136;53.172;8.256;2023-08-20T03:37:39;16.00;99.90
16064;DHT22;8136;53.172;8.256;2023-08-20T03:40:09;16.10;99.90
16064;DHT22;8136;53.172;8.256;2023-08-20T03:42:38;16.10;99.90
16064;DHT22;8136;53.172;8.256;2023-08-20T03:45:05;16.10;99.90
16064;DHT22;8136;53.172;8.256;2023-08-20T03:47:33;16.10;99.90
16064;DHT22;8136;53.172;8.256;2023-08-20T03:50:08;16.20;99.90
16064;DHT22;8136;53.172;8.256;2023-08-20T03:52:38;16.30;99.90
16064;DHT22;8136;53.172;8.256;2023-08-20T03:55:06;16.40;99.90
16064;DHT22;8136;53.172;8.256;2023-08-20T03:57:33;16.40;99.90
16064;DHT22;8136;53.172;8.256;2023-08-20T04:00:05;16.50;99.90
16064;DHT22;8136;53.172;8.256;2023-08-20T04:02:37;16.50;99.90
16064;DHT22;8136;53.172;8.256;2023-08-20T04:05:05;16.50;99.90
16064;DHT22;8136;53.172;8.256;2023-08-20T04:07:32;16.40;99.90
16064;DHT22;8136;53.172;8.256;2023-08-20T04:10:07;16.40;99.90
16064;DHT22;8136;53.172;8.256;2023-08-20T04:12:36;16.40;99.90
16064;DHT22;8136;53.172;8.256;2023-08-20T04:15:05;16.50;99.90
16064;DHT22;8136;53.172;8.256;2023-08-20T04:17:34;16.50;99.90
16064;DHT22;8136;53.172;8.256;2023-08-20T04:20:01;16.50;99.90
16064;DHT22;8136;53.172;8.256;2023-08-20T04:22:33;16.50;99.90
16064;DHT22;8136;53.172;8.256;2023-08-20T04:25:00;16.60;99.90
16064;DHT22;8136;53.172;8.256;2023-08-20T04:27:27;16.50;99.90
16064;DHT22;8136;53.172;8.256;2023-08-20T04:29:56;16.50;99.90
16064;DHT22;8136;53.172;8.256;2023-08-20T04:35:48;16.50;99.90
16064;DHT22;8136;53.172;8.256;2023-08-20T04:38:18;16.40;99.90
16064;DHT22;8136;53.172;8.256;2023-08-20T04:40:46;16.40;99.90
16064;DHT22;8136;53.172;8.256;2023-08-20T04:43:13;16.30;99.90
16064;DHT22;8136;53.172;8.256;2023-08-20T04:48:54;16.30;99.90
16064;DHT22;8136;53.172;8.256;2023-08-20T04:51:23;16.30;99.90
16064;DHT22;8136;53.172;8.256;2023-08-20T04:53:50;16.40;99.90
16064;DHT22;8136;53.172;8.256;2023-08-20T04:56:19;16.40;99.90
16064;DHT22;8136;53.172;8.256;2023-08-20T04:58:47;16.40;99.90
16064;DHT22;8136;53.172;8.256;2023-08-20T05:01:13;16.40;99.90
16064;DHT22;8136;53.172;8.256;2023-08-20T05:07:01;16.40;99.90
16064;DHT22;8136;53.172;8.256;2023-08-20T05:09:32;16.40;99.90
16064;DHT22;8136;53.172;8.256;2023-08-20T05:12:02;16.30;99.90
16064;DHT22;8136;53.172;8.256;2023-08-20T05:14:29;16.40;99.90
16064;DHT22;8136;53.172;8.256;2023-08-20T05:16:57;16.40;99.90
16064;DHT22;8136;53.172;8.256;2023-08-20T05:19:26;16.50;99.90
16064;DHT22;8136;53.172;8.256;2023-08-20T05:22:26;16.50;99.90
16064;DHT22;8136;53.172;8.256;2023-08-20T05:24:54;16.60;99.90
16064;DHT22;8136;53.172;8.256;2023-08-20T05:27:22;16.60;99.90
16064;DHT22;8136;53.172;8.256;2023-08-20T05:29:52;16.70;99.90
16064;DHT22;8136;53.172;8.256;2023-08-20T05:32:20;16.70;99.90
16064;DHT22;8136;53.172;8.256;2023-08-20T05:34:47;16.70;99.90
16064;DHT22;8136;53.172;8.256;2023-08-20T05:37:14;16.70;99.90
16064;DHT22;8136;53.172;8.256;2023-08-20T05:45:18;17.00;99.90
16064;DHT22;8136;53.172;8.256;2023-08-20T05:47:49;17.00;99.90
16064;DHT22;8136;53.172;8.256;2023-08-20T05:50:24;17.10;99.90
16064;DHT22;8136;53.172;8.256;2023-08-20T05:52:52;17.10;99.90
16064;DHT22;8136;53.172;8.256;2023-08-20T06:49:04;18.80;99.90
16064;DHT22;8136;53.172;8.256;2023-08-20T06:54:45;19.00;99.90
16064;DHT22;8136;53.172;8.256;2023-08-20T06:57:32;19.10;99.90
16064;DHT22;8136;53.172;8.256;2023-08-20T07:00:01;19.20;99.90
16064;DHT22;8136;53.172;8.256;2023-08-20T07:02:32;19.20;99.90
16064;DHT22;8136;53.172;8.256;2023-08-20T07:05:01;19.30;99.90
16064;DHT22;8136;53.172;8.256;2023-08-20T07:07:27;19.40;99.90
16064;DHT22;8136;53.172;8.256;2023-08-20T07:13:21;19.60;99.90
16064;DHT22;8136;53.172;8.256;2023-08-20T07:15:51;19.70;99.90
16064;DHT22;8136;53.172;8.256;2023-08-20T07:20:19;19.80;99.90
16064;DHT22;8136;53.172;8.256;2023-08-20T07:36:04;20.30;99.90
16064;DHT22;8136;53.172;8.256;2023-08-20T07:41:55;20.40;99.90
16064;DHT22;8136;53.172;8.256;2023-08-20T08:14:24;21.30;99.90
16064;DHT22;8136;53.172;8.256;2023-08-20T08:17:07;21.40;99.90
16064;DHT22;8136;53.172;8.256;2023-08-20T08:19:42;21.50;99.90
16064;DHT22;8136;53.172;8.256;2023-08-20T08:22:54;21.50;99.90
16064;DHT22;8136;53.172;8.256;2023-08-20T08:25:56;21.50;99.90
16064;DHT22;8136;53.172;8.256;2023-08-20T08:29:43;21.70;99.90
16064;DHT22;8136;53.172;8.256;2023-08-20T08:32:37;21.70;99.90
16064;DHT22;8136;53.172;8.256;2023-08-20T08:38:47;21.80;99.90
16064;DHT22;8136;53.172;8.256;2023-08-20T08:41:46;21.90;99.90
16064;DHT22;8136;53.172;8.256;2023-08-20T08:44:47;22.00;99.90
16064;DHT22;8136;53.172;8.256;2023-08-20T08:47:33;22.10;99.90
16064;DHT22;8136;53.172;8.256;2023-08-20T08:56:51;22.20;99.90
16064;DHT22;8136;53.172;8.256;2023-08-20T08:59:48;22.20;99.90
16064;DHT22;8136;53.172;8.256;2023-08-20T09:16:25;22.70;99.90
16064;DHT22;8136;53.172;8.256;2023-08-20T09:23:51;22.90;99.90
16064;DHT22;8136;53.172;8.256;2023-08-20T09:36:18;23.30;99.90
16064;DHT22;8136;53.172;8.256;2023-08-20T09:39:15;23.30;99.90
16064;DHT22;8136;53.172;8.256;2023-08-20T09:42:07;23.30;99.90
16064;DHT22;8136;53.172;8.256;2023-08-20T09:44:46;23.50;99.90
16064;DHT22;8136;53.172;8.256;2023-08-20T09:47:17;23.50;99.90
16064;DHT22;8136;53.172;8.256;2023-08-20T09:49:52;23.50;99.90
16064;DHT22;8136;53.172;8.256;2023-08-20T09:52:54;23.60;99.90
16064;DHT22;8136;53.172;8.256;2023-08-20T09:55:33;23.70;99.90
16064;DHT22;8136;53.172;8.256;2023-08-20T09:58:01;23.60;99.90
16064;DHT22;8136;53.172;8.256;2023-08-20T10:00:32;23.60;99.90
16064;DHT22;8136;53.172;8.256;2023-08-20T10:03:00;23.70;99.90
16064;DHT22;8136;53.172;8.256;2023-08-20T10:05:28;23.80;99.90
16064;DHT22;8136;53.172;8.256;2023-08-20T10:07:58;23.90;99.90
16064;DHT22;8136;53.172;8.256;2023-08-20T10:10:26;24.00;99.90
16064;DHT22;8136;53.172;8.256;2023-08-20T10:12:56;24.00;99.90
16064;DHT22;8136;53.172;8.256;2023-08-20T10:15:23;23.80;99.90
16064;DHT22;8136;53.172;8.256;2023-08-20T10:17:55;23.70;99.90
16064;DHT22;8136;53.172;8.256;2023-08-20T10:20:24;23.80;99.90
16064;DHT22;8136;53.172;8.256;2023-08-20T10:23:02;23.80;99.90
16064;DHT22;8136;53.172;8.256;2023-08-20T10:25:30;24.00;99.90
16064;DHT22;8136;53.172;8.256;2023-08-20T10:28:20;24.00;99.90
16064;DHT22;8136;53.172;8.256;2023-08-20T10:31:06;23.90;99.90
16064;DHT22;8136;53.172;8.256;2023-08-20T10:33:34;23.90;99.90
16064;DHT22;8136;53.172;8.256;2023-08-20T10:36:10;23.90;99.90
16064;DHT22;8136;53.172;8.256;2023-08-20T10:38:41;23.90;99.90
16064;DHT22;8136;53.172;8.256;2023-08-20T10:41:09;23.80;99.90
16064;DHT22;8136;53.172;8.256;2023-08-20T10:43:40;23.80;99.90
16064;DHT22;8136;53.172;8.256;2023-08-20T10:46:16;24.00;99.90
16064;DHT22;8136;53.172;8.256;2023-08-20T10:48:46;24.20;99.90
16064;DHT22;8136;53.172;8.256;2023-08-20T10:51:15;24.20;99.90
16064;DHT22;8136;53.172;8.256;2023-08-20T10:54:02;24.20;99.90
16064;DHT22;8136;53.172;8.256;2023-08-20T10:56:41;24.30;99.90
16064;DHT22;8136;53.172;8.256;2023-08-20T10:59:09;24.40;99.90
16064;DHT22;8136;53.172;8.256;2023-08-20T11:01:41;24.60;99.90
16064;DHT22;8136;53.172;8.256;2023-08-20T11:04:09;24.80;99.90
16064;DHT22;8136;53.172;8.256;2023-08-20T11:06:37;25.00;99.90
16064;DHT22;8136;53.172;8.256;2023-08-20T11:09:06;25.10;99.90
16064;DHT22;8136;53.172;8.256;2023-08-20T11:11:33;25.00;99.90
16064;DHT22;8136;53.172;8.256;2023-08-20T11:14:05;24.90;99.90
16064;DHT22;8136;53.172;8.256;2023-08-20T11:16:36;24.90;99.90
16064;DHT22;8136;53.172;8.256;2023-08-20T11:19:06;24.70;99.90
16064;DHT22;8136;53.172;8.256;2023-08-20T11:21:34;24.70;99.90
16064;DHT22;8136;53.172;8.256;2023-08-20T11:24:03;24.70;99.90
16064;DHT22;8136;53.172;8.256;2023-08-20T11:26:32;24.50;99.90
16064;DHT22;8136;53.172;8.256;2023-08-20T11:29:00;24.50;99.90
16064;DHT22;8136;53.172;8.256;2023-08-20T11:31:29;24.60;99.90
16064;DHT22;8136;53.172;8.256;2023-08-20T11:33:57;24.70;99.90
16064;DHT22;8136;53.172;8.256;2023-08-20T11:36:24;24.80;99.90
16064;DHT22;8136;53.172;8.256;2023-08-20T11:38:54;25.00;99.90
16064;DHT22;8136;53.172;8.256;2023-08-20T11:41:22;25.10;99.90
16064;DHT22;8136;53.172;8.256;2023-08-20T11:43:53;25.30;99.90
16064;DHT22;8136;53.172;8.256;2023-08-20T11:46:21;25.50;99.90
16064;DHT22;8136;53.172;8.256;2023-08-20T11:48:59;25.60;99.90
16064;DHT22;8136;53.172;8.256;2023-08-20T11:51:28;25.80;99.90
16064;DHT22;8136;53.172;8.256;2023-08-20T11:53:57;25.80;99.90
16064;DHT22;8136;53.172;8.256;2023-08-20T11:56:26;25.90;99.90
16064;DHT22;8136;53.172;8.256;2023-08-20T11:58:58;26.10;99.90
16064;DHT22;8136;53.172;8.256;2023-08-20T12:01:30;26.10;99.90
16064;DHT22;8136;53.172;8.256;2023-08-20T12:04:00;26.10;99.90
16064;DHT22;8136;53.172;8.256;2023-08-20T12:06:27;26.10;99.90
16064;DHT22;8136;53.172;8.256;2023-08-20T12:08:56;26.20;99.90
16064;DHT22;8136;53.172;8.256;2023-08-20T12:11:27;26.30;99.90
16064;DHT22;8136;53.172;8.256;2023-08-20T12:13:56;26.30;99.90
16064;DHT22;8136;53.172;8.256;2023-08-20T12:16:24;26.30;99.90
16064;DHT22;8136;53.172;8.256;2023-08-20T12:18:51;26.10;99.90
16064;DHT22;8136;53.172;8.256;2023-08-20T12:21:19;26.10;99.90
16064;DHT22;8136;53.172;8.256;2023-08-20T12:23:46;26.00;99.90
16064;DHT22;8136;53.172;8.256;2023-08-20T12:26:15;26.00;99.90
16064;DHT22;8136;53.172;8.256;2023-08-20T12:28:42;26.00;99.90
16064;DHT22;8136;53.172;8.256;2023-08-20T12:31:12;26.10;99.90
16064;DHT22;8136;53.172;8.256;2023-08-20T12:33:40;26.10;99.90
16064;DHT22;8136;53.172;8.256;2023-08-20T12:36:07;26.20;99.90
16064;DHT22;8136;53.172;8.256;2023-08-20T12:38:36;26.30;99.90
16064;DHT22;8136;53.172;8.256;2023-08-20T12:41:03;26.60;99.90
16064;DHT22;8136;53.172;8.256;2023-08-20T12:43:32;26.80;99.90
16064;DHT22;8136;53.172;8.256;2023-08-20T12:45:59;27.00;99.90
16064;DHT22;8136;53.172;8.256;2023-08-20T12:48:27;27.10;99.90
16064;DHT22;8136;53.172;8.256;2023-08-20T12:50:54;27.10;99.90
16064;DHT22;8136;53.172;8.256;2023-08-20T12:53:22;27.20;99.90
16064;DHT22;8136;53.172;8.256;2023-08-20T12:55:49;27.30;99.90
16064;DHT22;8136;53.172;8.256;2023-08-20T12:58:18;27.30;99.90
16064;DHT22;8136;53.172;8.256;2023-08-20T13:00:46;27.30;99.90
16064;DHT22;8136;53.172;8.256;2023-08-20T13:03:13;27.10;99.90
16064;DHT22;8136;53.172;8.256;2023-08-20T13:05:44;27.10;99.90
16064;DHT22;8136;53.172;8.256;2023-08-20T13:08:15;27.20;99.90
16064;DHT22;8136;53.172;8.256;2023-08-20T13:10:48;27.00;99.90
16064;DHT22;8136;53.172;8.256;2023-08-20T13:13:21;26.80;99.90
16064;DHT22;8136;53.172;8.256;2023-08-20T13:15:48;27.00;99.90
16064;DHT22;8136;53.172;8.256;2023-08-20T13:18:16;27.10;99.90
16064;DHT22;8136;53.172;8.256;2023-08-20T13:20:45;27.10;99.90
16064;DHT22;8136;53.172;8.256;2023-08-20T13:23:13;27.20;99.90
16064;DHT22;8136;53.172;8.256;2023-08-20T13:25:40;27.20;99.90
16064;DHT22;8136;53.172;8.256;2023-08-20T13:28:10;27.20;99.90
16064;DHT22;8136;53.172;8.256;2023-08-20T13:30:39;27.30;99.90
16064;DHT22;8136;53.172;8.256;2023-08-20T13:33:13;27.30;99.90
16064;DHT22;8136;53.172;8.256;2023-08-20T13:35:41;27.30;99.90
16064;DHT22;8136;53.172;8.256;2023-08-20T13:38:12;27.30;99.90
16064;DHT22;8136;53.172;8.256;2023-08-20T13:40:40;27.30;99.90
16064;DHT22;8136;53.172;8.256;2023-08-20T13:43:08;27.50;99.90
16064;DHT22;8136;53.172;8.256;2023-08-20T13:45:39;27.50;99.90
16064;DHT22;8136;53.172;8.256;2023-08-20T13:48:09;27.60;99.90
16064;DHT22;8136;53.172;8.256;2023-08-20T13:50:46;28.00;99.90
16064;DHT22;8136;53.172;8.256;2023-08-20T13:53:28;28.60;99.90
16064;DHT22;8136;53.172;8.256;2023-08-20T13:56:30;29.20;99.90
16064;DHT22;8136;53.172;8.256;2023-08-20T14:29:35;35.90;95.20
16064;DHT22;8136;53.172;8.256;2023-08-20T14:32:24;35.30;93.30
16064;DHT22;8136;53.172;8.256;2023-08-20T14:34:58;34.90;94.00
16064;DHT22;8136;53.172;8.256;2023-08-20T14:37:57;35.00;95.60
16064;DHT22;8136;53.172;8.256;2023-08-20T14:40:41;35.80;93.50
16064;DHT22;8136;53.172;8.256;2023-08-20T14:43:33;36.00;92.30
16064;DHT22;8136;53.172;8.256;2023-08-20T14:46:37;36.20;91.60
16064;DHT22;8136;53.172;8.256;2023-08-20T14:49:18;36.20;91.30
16064;DHT22;8136;53.172;8.256;2023-08-20T14:51:51;35.80;91.60
16064;DHT22;8136;53.172;8.256;2023-08-20T14:54:18;35.50;93.80
16064;DHT22;8136;53.172;8.256;2023-08-20T14:57:22;35.80;93.80
16064;DHT22;8136;53.172;8.256;2023-08-20T14:59:51;36.60;92.20
16064;DHT22;8136;53.172;8.256;2023-08-20T15:05:21;38.00;89.80
16064;DHT22;8136;53.172;8.256;2023-08-20T15:08:05;38.00;89.90
16064;DHT22;8136;53.172;8.256;2023-08-20T15:10:34;38.20;87.70
16064;DHT22;8136;53.172;8.256;2023-08-20T15:13:03;37.90;88.70
16064;DHT22;8136;53.172;8.256;2023-08-20T15:15:33;37.50;90.00
16064;DHT22;8136;53.172;8.256;2023-08-20T15:18:00;38.00;88.90
16064;DHT22;8136;53.172;8.256;2023-08-20T15:20:33;37.90;89.00
16064;DHT22;8136;53.172;8.256;2023-08-20T15:23:00;37.90;88.40
16064;DHT22;8136;53.172;8.256;2023-08-20T15:25:31;37.30;90.00
16064;DHT22;8136;53.172;8.256;2023-08-20T15:28:00;36.70;91.80
16064;DHT22;8136;53.172;8.256;2023-08-20T15:30:29;36.90;89.00
16064;DHT22;8136;53.172;8.256;2023-08-20T15:32:56;37.10;90.50
16064;DHT22;8136;53.172;8.256;2023-08-20T15:35:24;37.10;87.90
16064;DHT22;8136;53.172;8.256;2023-08-20T15:38:08;36.60;89.00
16064;DHT22;8136;53.172;8.256;2023-08-20T15:40:38;35.90;90.00
16064;DHT22;8136;53.172;8.256;2023-08-20T15:43:06;35.20;91.20
16064;DHT22;8136;53.172;8.256;2023-08-20T15:45:41;34.70;91.60
16064;DHT22;8136;53.172;8.256;2023-08-20T15:48:09;35.50;91.70
16064;DHT22;8136;53.172;8.256;2023-08-20T15:50:38;36.30;91.90
16064;DHT22;8136;53.172;8.256;2023-08-20T15:53:05;36.90;88.50
16064;DHT22;8136;53.172;8.256;2023-08-20T15:55:42;36.50;88.40
16064;DHT22;8136;53.172;8.256;2023-08-20T15:58:17;36.20;91.00
16064;DHT22;8136;53.172;8.256;2023-08-20T16:00:51;36.20;90.70
16064;DHT22;8136;53.172;8.256;2023-08-20T16:03:19;36.60;90.90
16064;DHT22;8136;53.172;8.256;2023-08-20T16:05:46;37.40;90.40
16064;DHT22;8136;53.172;8.256;2023-08-20T16:08:13;37.60;90.00
16064;DHT22;8136;53.172;8.256;2023-08-20T16:10:43;37.00;90.00
16064;DHT22;8136;53.172;8.256;2023-08-20T16:13:11;35.70;91.70
16064;DHT22;8136;53.172;8.256;2023-08-20T16:15:38;34.40;91.30
16064;DHT22;8136;53.172;8.256;2023-08-20T16:18:05;34.50;90.60
16064;DHT22;8136;53.172;8.256;2023-08-20T16:20:33;34.10;90.90
16064;DHT22;8136;53.172;8.256;2023-08-20T16:23:02;33.30;92.20
16064;DHT22;8136;53.172;8.256;2023-08-20T16:25:29;32.50;94.00
16064;DHT22;8136;53.172;8.256;2023-08-20T16:28:03;32.10;93.30
16064;DHT22;8136;53.172;8.256;2023-08-20T16:30:31;31.50;93.20
16064;DHT22;8136;53.172;8.256;2023-08-20T16:33:01;30.80;93.80
16064;DHT22;8136;53.172;8.256;2023-08-20T16:35:36;30.50;95.20
16064;DHT22;8136;53.172;8.256;2023-08-20T16:38:24;30.30;95.70
16064;DHT22;8136;53.172;8.256;2023-08-20T16:40:51;30.10;96.20
16064;DHT22;8136;53.172;8.256;2023-08-20T16:43:19;29.80;95.70
16064;DHT22;8136;53.172;8.256;2023-08-20T16:45:46;29.20;96.30
16064;DHT22;8136;53.172;8.256;2023-08-20T16:48:13;28.80;97.10
16064;DHT22;8136;53.172;8.256;2023-08-20T16:50:40;28.40;97.40
16064;DHT22;8136;53.172;8.256;2023-08-20T16:53:09;28.20;98.80
16064;DHT22;8136;53.172;8.256;2023-08-20T16:55:38;27.90;99.90
16064;DHT22;8136;53.172;8.256;2023-08-20T16:58:05;27.90;99.90
16064;DHT22;8136;53.172;8.256;2023-08-20T17:00:33;27.90;99.90
16064;DHT22;8136;53.172;8.256;2023-08-20T17:03:01;27.70;99.90
16064;DHT22;8136;53.172;8.256;2023-08-20T17:05:30;27.80;99.90
16064;DHT22;8136;53.172;8.256;2023-08-20T17:08:06;27.80;99.90
16064;DHT22;8136;53.172;8.256;2023-08-20T17:10:34;27.80;99.90
16064;DHT22;8136;53.172;8.256;2023-08-20T17:13:01;27.70;99.90
16064;DHT22;8136;53.172;8.256;2023-08-20T17:20:41;27.60;99.90
16064;DHT22;8136;53.172;8.256;2023-08-20T17:23:17;27.50;99.90
16064;DHT22;8136;53.172;8.256;2023-08-20T17:25:47;27.40;99.90
16064;DHT22;8136;53.172;8.256;2023-08-20T17:28:20;27.30;99.90
16064;DHT22;8136;53.172;8.256;2023-08-20T17:30:52;27.20;99.90
16064;DHT22;8136;53.172;8.256;2023-08-20T17:33:24;27.10;99.90
16064;DHT22;8136;53.172;8.256;2023-08-20T17:36:04;26.90;99.90
16064;DHT22;8136;53.172;8.256;2023-08-20T17:38:32;26.80;99.90
16064;DHT22;8136;53.172;8.256;2023-08-20T17:41:03;26.70;99.90
16064;DHT22;8136;53.172;8.256;2023-08-20T17:43:31;26.60;99.90
16064;DHT22;8136;53.172;8.256;2023-08-20T17:45:59;26.30;99.90
16064;DHT22;8136;53.172;8.256;2023-08-20T17:48:26;26.20;99.90
16064;DHT22;8136;53.172;8.256;2023-08-20T17:50:55;26.10;99.90
16064;DHT22;8136;53.172;8.256;2023-08-20T17:53:26;26.10;99.90
16064;DHT22;8136;53.172;8.256;2023-08-20T17:55:56;25.90;99.90
16064;DHT22;8136;53.172;8.256;2023-08-20T17:58:25;25.80;99.90
16064;DHT22;8136;53.172;8.256;2023-08-20T18:00:52;25.70;99.90
16064;DHT22;8136;53.172;8.256;2023-08-20T18:03:18;25.60;99.90
16064;DHT22;8136;53.172;8.256;2023-08-20T18:05:45;25.50;99.90
16064;DHT22;8136;53.172;8.256;2023-08-20T18:08:13;25.50;99.90
16064;DHT22;8136;53.172;8.256;2023-08-20T18:10:42;25.40;99.90
16064;DHT22;8136;53.172;8.256;2023-08-20T18:13:12;25.30;99.90
16064;DHT22;8136;53.172;8.256;2023-08-20T18:15:40;25.20;99.90
16064;DHT22;8136;53.172;8.256;2023-08-20T18:18:06;25.20;99.90
16064;DHT22;8136;53.172;8.256;2023-08-20T18:20:33;25.20;99.90
16064;DHT22;8136;53.172;8.256;2023-08-20T18:23:02;25.00;99.90
16064;DHT22;8136;53.172;8.256;2023-08-20T18:25:30;24.80;99.90
16064;DHT22;8136;53.172;8.256;2023-08-20T18:27:58;24.70;99.90
16064;DHT22;8136;53.172;8.256;2023-08-20T18:30:25;24.50;99.90
16064;DHT22;8136;53.172;8.256;2023-08-20T18:32:54;24.40;99.90
16064;DHT22;8136;53.172;8.256;2023-08-20T18:35:21;24.30;99.90
16064;DHT22;8136;53.172;8.256;2023-08-20T18:37:48;24.20;99.90
16064;DHT22;8136;53.172;8.256;2023-08-20T18:40:18;24.20;99.90
16064;DHT22;8136;53.172;8.256;2023-08-20T18:42:45;24.30;99.90
16064;DHT22;8136;53.172;8.256;2023-08-20T18:45:13;24.20;99.90
16064;DHT22;8136;53.172;8.256;2023-08-20T18:47:40;24.00;99.90
16064;DHT22;8136;53.172;8.256;2023-08-20T18:50:09;23.90;99.90
16064;DHT22;8136;53.172;8.256;2023-08-20T18:52:41;23.70;99.90
16064;DHT22;8136;53.172;8.256;2023-08-20T18:55:10;23.50;99.90
16064;DHT22;8136;53.172;8.256;2023-08-20T18:57:37;23.40;99.90
16064;DHT22;8136;53.172;8.256;2023-08-20T19:00:06;23.20;99.90
16064;DHT22;8136;53.172;8.256;2023-08-20T19:02:38;23.00;99.90
16064;DHT22;8136;53.172;8.256;2023-08-20T19:05:06;23.00;99.90
16064;DHT22;8136;53.172;8.256;2023-08-20T19:07:34;22.80;99.90
16064;DHT22;8136;53.172;8.256;2023-08-20T19:10:03;22.70;99.90
16064;DHT22;8136;53.172;8.256;2023-08-20T19:12:32;22.60;99.90
16064;DHT22;8136;53.172;8.256;2023-08-20T19:15:00;22.50;99.90
16064;DHT22;8136;53.172;8.256;2023-08-20T19:17:29;22.40;99.90
16064;DHT22;8136;53.172;8.256;2023-08-20T19:19:59;22.30;99.90
16064;DHT22;8136;53.172;8.256;2023-08-20T19:22:25;22.30;99.90
16064;DHT22;8136;53.172;8.256;2023-08-20T19:24:54;22.30;99.90
16064;DHT22;8136;53.172;8.256;2023-08-20T19:27:22;22.20;99.90
16064;DHT22;8136;53.172;8.256;2023-08-20T19:29:55;22.10;99.90
16064;DHT22;8136;53.172;8.256;2023-08-20T19:32:27;22.00;99.90
16064;DHT22;8136;53.172;8.256;2023-08-20T19:35:04;22.00;99.90